Aeroporto :
LOGIN :

Iscrizione | Disclaimer

   EN    FR    IT 

 










Sommario :    VFR   VFR Marginale   IFR   IFR Intensivo   IFR Molto Intensivo
Visibilità : 
Base nubi : 
>= 8 km
>= 3000ft
5 / 8 km
1000 / 3000 ft
1500m / 5 km
500 / 1000 ft
800 / 1500m
200 / 500 ft
< 800m
< 200 ft
Simboli :   Temporali  Nebbia  Neve Forte  Precipitazioni Forti  Vento > 20 kt
SIGMETs :   Varie  Temporali  Ghiacco  Turbolenza  Onda orograficha  Ceneri Vulcaniche







- Altitudine del aeroporto : 433 ft
- Carte del aeroporto


LFOC - Chateaudun

ULTIMO METAR :
  • 191730Z AUTO 00000KT CAVOK 08/05 Q1022 NOSIG

METARs OBSOLETI :
  • 191700Z AUTO 00000KT 9999 FEW019 10/05 Q1022 NOSIG
  • 191630Z AUTO 00000KT CAVOK 11/06 Q1022 NOSIG
  • 191600Z AUTO VRB02KT CAVOK 11/06 Q1022 NOSIG
  • 191530Z AUTO VRB02KT CAVOK 11/07 Q1022 NOSIG
  • 191500Z AUTO VRB02KT CAVOK 11/07 Q1022 NOSIG

TAF TAF LFOC
Valido dal 19 a 15 ore il 20 a 15 ore UTC


191400Z 1915/2015 24003KT 9999 BKN015
BECMG 1922/1924 2000 BR
TEMPO 2004/2011 0500 FG VV///
BECMG 2011/2013 8000 NSW BKN010
Nessun NOTAM noto per questo aeroporto.



MetMap, La meteo Aeronautica in un colpo d'occhio ! - Copyright ORBIFLY Dicembre 2007 - Disclaimer

ORBIFLY MET'MAP TEAM :

Programmazione e sviluppo : Alexandra Zaïnal
Concezione e sviluppo : Baudouin d'Aumeries
Co-Programmazione e sviluppo : Marc-Olivier Méhu
Supporto tecnico e logistico : Manuel Goepfert
Aiuto per la traduzione : Arnaldo La Scala

Contatto : metmap@orbifly.com




FONTI E CREDITI :

   NOAA